Time,TemperatureF,DewpointF,PressureIn,WindDirection,WindDirectionDegrees,WindSpeedMPH,WindSpeedGustMPH,Humidity,HourlyPrecipIn,Conditions,Clouds,dailyrainin,SoftwareType,DateUTC
2013-03-20 00:02:00,35.0,3.0,30.05,SE,134,11.0,18.0,25,0.00,,,0.00,,2013-03-20 06:02:00,
2013-03-20 00:12:00,35.0,3.0,30.05,SE,134,11.0,18.0,25,0.00,,,0.00,,2013-03-20 06:12:00,
2013-03-20 00:21:00,35.0,3.0,30.04,SE,124,11.0,15.0,25,0.00,,,0.00,,2013-03-20 06:21:00,
2013-03-20 00:31:00,35.0,3.0,30.03,ESE,120,12.0,18.0,25,0.00,,,0.00,,2013-03-20 06:31:00,
2013-03-20 00:42:00,35.0,3.0,30.03,ESE,120,12.0,18.0,25,0.00,,,0.00,,2013-03-20 06:42:00,
2013-03-20 00:52:00,35.0,2.0,30.03,SE,139,13.0,18.0,24,0.00,,,0.00,,2013-03-20 06:52:00,
2013-03-20 01:01:00,35.0,2.0,30.02,SE,135,12.0,18.0,24,0.00,,,0.00,,2013-03-20 07:01:00,
2013-03-20 01:11:00,35.0,2.0,30.02,SE,135,12.0,18.0,24,0.00,,,0.00,,2013-03-20 07:11:00,
2013-03-20 01:21:00,35.0,-1.0,30.01,SE,127,16.0,22.0,21,0.00,,,0.00,,2013-03-20 07:21:00,
2013-03-20 01:31:00,36.0,-1.0,30.01,SE,142,16.0,20.0,20,0.00,,,0.00,,2013-03-20 07:31:00,
2013-03-20 01:41:00,36.0,-1.0,30.01,SE,142,16.0,20.0,20,0.00,,,0.00,,2013-03-20 07:41:00,
2013-03-20 01:52:00,36.0,-2.0,30.00,SE,140,16.0,23.0,19,0.00,,,0.00,,2013-03-20 07:52:00,
2013-03-20 02:01:00,36.0,-1.0,29.99,SE,130,15.0,21.0,20,0.00,,,0.00,,2013-03-20 08:01:00,
2013-03-20 02:11:00,36.0,-1.0,29.99,SE,130,15.0,21.0,20,0.00,,,0.00,,2013-03-20 08:11:00,
2013-03-20 02:21:00,36.0,-2.0,29.99,SE,128,15.0,22.0,19,0.00,,,0.00,,2013-03-20 08:21:00,
2013-03-20 02:32:00,36.0,1.0,29.98,SE,126,14.0,21.0,22,0.00,,,0.00,,2013-03-20 08:32:00,
2013-03-20 02:42:00,36.0,1.0,29.98,SE,126,14.0,21.0,22,0.00,,,0.00,,2013-03-20 08:42:00,
2013-03-20 02:52:00,36.0,1.0,29.98,SE,128,14.0,22.0,22,0.00,,,0.00,,2013-03-20 08:52:00,
2013-03-20 03:01:00,36.0,2.0,29.97,SE,130,12.0,19.0,23,0.00,,,0.00,,2013-03-20 09:01:00,
2013-03-20 03:11:00,36.0,2.0,29.97,SE,130,12.0,19.0,23,0.00,,,0.00,,2013-03-20 09:11:00,
2013-03-20 03:22:00,36.0,1.0,29.97,SE,126,13.0,18.0,22,0.00,,,0.00,,2013-03-20 09:22:00,
2013-03-20 03:32:00,36.0,1.0,29.96,ESE,122,12.0,19.0,22,0.00,,,0.00,,2013-03-20 09:32:00,
2013-03-20 03:42:00,36.0,1.0,29.96,ESE,122,12.0,19.0,22,0.00,,,0.00,,2013-03-20 09:42:00,
2013-03-20 03:52:00,37.0,2.0,29.95,SE,127,14.0,21.0,22,0.00,,,0.00,,2013-03-20 09:52:00,
2013-03-20 04:02:00,37.0,2.0,29.94,ESE,121,13.0,21.0,22,0.00,,,0.00,,2013-03-20 10:02:00,
2013-03-20 04:12:00,37.0,2.0,29.94,ESE,121,13.0,21.0,22,0.00,,,0.00,,2013-03-20 10:12:00,
2013-03-20 04:22:00,36.0,1.0,29.93,ESE,110,14.0,23.0,22,0.00,,,0.00,,2013-03-20 10:22:00,
2013-03-20 04:32:00,36.0,2.0,29.93,ESE,123,14.0,22.0,23,0.00,,,0.00,,2013-03-20 10:32:00,
2013-03-20 04:42:00,36.0,2.0,29.93,ESE,123,14.0,22.0,23,0.00,,,0.00,,2013-03-20 10:42:00,
2013-03-20 04:53:00,37.0,3.0,29.92,SE,131,16.0,22.0,23,0.00,,,0.00,,2013-03-20 10:53:00,
2013-03-20 05:02:00,37.0,3.0,29.92,SE,132,14.0,23.0,23,0.00,,,0.00,,2013-03-20 11:02:00,
2013-03-20 05:11:00,37.0,3.0,29.92,SE,132,14.0,23.0,23,0.00,,,0.00,,2013-03-20 11:11:00,
2013-03-20 05:22:00,37.0,3.0,29.92,ESE,123,14.0,19.0,23,0.00,,,0.00,,2013-03-20 11:22:00,
2013-03-20 05:32:00,37.0,4.0,29.92,SE,128,12.0,18.0,25,0.00,,,0.00,,2013-03-20 11:32:00,
2013-03-20 05:42:00,37.0,4.0,29.92,SE,128,12.0,18.0,25,0.00,,,0.00,,2013-03-20 11:42:00,
2013-03-20 05:52:00,36.0,4.0,29.91,SE,126,14.0,19.0,26,0.00,,,0.00,,2013-03-20 11:52:00,
2013-03-20 06:02:00,36.0,8.0,29.91,SE,138,14.0,20.0,30,0.00,,,0.00,,2013-03-20 12:02:00,
2013-03-20 06:11:00,36.0,8.0,29.91,SE,138,14.0,20.0,30,0.00,,,0.00,,2013-03-20 12:11:00,
2013-03-20 06:22:00,36.0,15.0,29.91,SE,140,12.0,20.0,41,0.00,,,0.00,,2013-03-20 12:22:00,
2013-03-20 06:32:00,37.0,16.0,29.91,South,180,15.0,23.0,41,0.00,,,0.00,,2013-03-20 12:32:00,
2013-03-20 06:42:00,37.0,16.0,29.91,South,180,15.0,23.0,41,0.00,,,0.00,,2013-03-20 12:42:00,
2013-03-20 06:52:00,39.0,18.0,29.92,SSW,206,9.0,17.0,43,0.00,,,0.00,,2013-03-20 12:52:00,
2013-03-20 07:01:00,37.0,17.0,29.92,SSE,149,18.0,26.0,44,0.00,,,0.00,,2013-03-20 13:01:00,
2013-03-20 07:12:00,37.0,17.0,29.92,SSE,149,18.0,26.0,44,0.00,,,0.00,,2013-03-20 13:12:00,
2013-03-20 07:22:00,33.0,26.0,29.93,SSW,198,14.0,21.0,76,0.00,,,0.00,,2013-03-20 13:22:00,
2013-03-20 07:31:00,31.0,27.0,29.92,SSE,161,11.0,20.0,86,0.00,,,0.00,,2013-03-20 13:31:00,
2013-03-20 07:41:00,31.0,27.0,29.92,SSE,161,11.0,20.0,86,0.00,,,0.00,,2013-03-20 13:41:00,
2013-03-20 07:52:00,31.0,29.0,29.91,ESE,122,8.0,16.0,92,0.00,,,0.00,,2013-03-20 13:52:00,
2013-03-20 08:01:00,30.0,28.0,29.91,ESE,115,12.0,19.0,94,0.00,,,0.00,,2013-03-20 14:01:00,
2013-03-20 08:11:00,30.0,28.0,29.91,ESE,115,12.0,19.0,94,0.00,,,0.00,,2013-03-20 14:11:00,
2013-03-20 08:22:00,30.0,29.0,29.90,SE,130,12.0,21.0,96,0.00,,,0.00,,2013-03-20 14:22:00,
2013-03-20 08:32:00,30.0,29.0,29.89,ESE,118,15.0,21.0,96,0.00,,,0.00,,2013-03-20 14:32:00,
2013-03-20 08:42:00,30.0,29.0,29.89,ESE,118,15.0,21.0,96,0.00,,,0.00,,2013-03-20 14:42:00,
2013-03-20 08:52:00,30.0,29.0,29.89,ESE,107,17.0,25.0,96,0.00,,,0.00,,2013-03-20 14:52:00,
2013-03-20 09:02:00,30.0,29.0,29.89,SE,126,17.0,24.0,97,0.00,,,0.00,,2013-03-20 15:02:00,
2013-03-20 09:12:00,30.0,29.0,29.89,ESE,119,13.0,21.0,97,0.00,,,0.00,,2013-03-20 15:12:00,
2013-03-20 09:22:00,30.0,29.0,29.89,ESE,119,13.0,21.0,97,0.00,,,0.00,,2013-03-20 15:22:00,
2013-03-20 09:32:00,30.0,29.0,29.89,SE,134,17.0,23.0,97,0.00,,,0.00,,2013-03-20 15:32:00,
2013-03-20 09:42:00,30.0,29.0,29.89,SE,134,17.0,23.0,97,0.00,,,0.00,,2013-03-20 15:42:00,
2013-03-20 09:53:00,31.0,31.0,29.89,ESE,119,14.0,22.0,98,0.00,,,0.00,,2013-03-20 15:53:00,
2013-03-20 10:02:00,31.0,31.0,29.89,SE,127,15.0,23.0,98,0.00,,,0.00,,2013-03-20 16:02:00,
2013-03-20 10:12:00,31.0,31.0,29.89,SE,127,15.0,23.0,98,0.00,,,0.00,,2013-03-20 16:12:00,
2013-03-20 10:22:00,31.0,31.0,29.89,ESE,119,16.0,21.0,98,0.00,,,0.00,,2013-03-20 16:22:00,
2013-03-20 10:32:00,31.0,31.0,29.89,SE,135,16.0,22.0,98,0.00,,,0.00,,2013-03-20 16:32:00,
2013-03-20 10:42:00,31.0,31.0,29.89,SE,135,16.0,22.0,98,0.00,,,0.00,,2013-03-20 16:42:00,
2013-03-20 10:52:00,31.0,31.0,29.89,SE,126,16.0,22.0,98,0.00,,,0.00,,2013-03-20 16:52:00,
2013-03-20 11:02:00,31.0,31.0,29.88,SE,130,15.0,19.0,98,0.00,,,0.00,,2013-03-20 17:02:00,
2013-03-20 11:11:00,31.0,31.0,29.88,SE,130,15.0,19.0,98,0.00,,,0.00,,2013-03-20 17:11:00,
2013-03-20 11:21:00,31.0,31.0,29.89,SE,128,14.0,20.0,98,0.00,,,0.00,,2013-03-20 17:21:00,
2013-03-20 11:32:00,31.0,31.0,29.88,SE,133,13.0,20.0,98,0.00,,,0.00,,2013-03-20 17:32:00,
2013-03-20 11:42:00,31.0,31.0,29.88,SE,133,13.0,20.0,98,0.00,,,0.00,,2013-03-20 17:42:00,
2013-03-20 11:52:00,32.0,32.0,29.89,SE,139,11.0,18.0,98,0.00,,,0.00,,2013-03-20 17:52:00,
2013-03-20 12:01:00,32.0,32.0,29.88,SE,137,14.0,21.0,98,0.00,,,0.00,,2013-03-20 18:01:00,
2013-03-20 12:12:00,32.0,32.0,29.88,SE,137,14.0,21.0,98,0.00,,,0.00,,2013-03-20 18:12:00,
2013-03-20 12:21:00,32.0,32.0,29.88,SE,141,13.0,21.0,98,0.00,,,0.00,,2013-03-20 18:21:00,
2013-03-20 12:32:00,32.0,32.0,29.87,SE,127,15.0,23.0,98,0.00,,,0.00,,2013-03-20 18:32:00,
2013-03-20 12:42:00,32.0,32.0,29.87,SE,127,15.0,23.0,98,0.00,,,0.00,,2013-03-20 18:42:00,
2013-03-20 12:52:00,31.0,31.0,29.87,SE,125,13.0,18.0,98,0.00,,,0.00,,2013-03-20 18:52:00,
2013-03-20 13:01:00,32.0,32.0,29.86,SE,125,12.0,20.0,99,0.00,,,0.00,,2013-03-20 19:01:00,
2013-03-20 13:11:00,32.0,32.0,29.86,SE,125,12.0,20.0,99,0.00,,,0.00,,2013-03-20 19:11:00,
2013-03-20 13:21:00,32.0,32.0,29.86,ESE,121,15.0,21.0,99,0.01,,,0.01,,2013-03-20 19:21:00,
2013-03-20 13:31:00,32.0,32.0,29.85,SE,130,15.0,21.0,99,0.01,,,0.01,,2013-03-20 19:31:00,
2013-03-20 13:42:00,32.0,32.0,29.85,SE,130,15.0,21.0,99,0.01,,,0.01,,2013-03-20 19:42:00,
2013-03-20 13:53:00,32.0,32.0,29.85,SE,132,13.0,19.0,99,0.02,,,0.02,,2013-03-20 19:53:00,
2013-03-20 14:01:00,32.0,32.0,29.85,ESE,121,14.0,21.0,99,0.02,,,0.02,,2013-03-20 20:01:00,
2013-03-20 14:12:00,32.0,32.0,29.85,ESE,121,14.0,21.0,99,0.02,,,0.02,,2013-03-20 20:12:00,
2013-03-20 14:22:00,33.0,33.0,29.85,SE,130,11.0,20.0,99,0.01,,,0.02,,2013-03-20 20:22:00,
2013-03-20 14:31:00,33.0,33.0,29.84,SE,127,13.0,17.0,99,0.01,,,0.02,,2013-03-20 20:31:00,
2013-03-20 14:42:00,33.0,33.0,29.84,SE,127,13.0,17.0,99,0.01,,,0.02,,2013-03-20 20:42:00,
2013-03-20 14:52:00,33.0,33.0,29.84,SE,130,11.0,17.0,99,0.00,,,0.02,,2013-03-20 20:52:00,
2013-03-20 15:01:00,33.0,33.0,29.83,SE,134,12.0,22.0,99,0.00,,,0.02,,2013-03-20 21:01:00,
2013-03-20 15:11:00,33.0,33.0,29.83,SE,134,12.0,22.0,99,0.00,,,0.02,,2013-03-20 21:11:00,
2013-03-20 15:22:00,34.0,34.0,29.82,ESE,116,13.0,21.0,99,0.00,,,0.02,,2013-03-20 21:22:00,
2013-03-20 15:32:00,34.0,34.0,29.82,SE,130,9.0,18.0,99,0.01,,,0.03,,2013-03-20 21:32:00,
2013-03-20 15:42:00,34.0,34.0,29.82,SE,130,9.0,18.0,99,0.01,,,0.03,,2013-03-20 21:42:00,
2013-03-20 15:52:00,34.0,34.0,29.81,ESE,123,13.0,21.0,99,0.01,,,0.03,,2013-03-20 21:52:00,
2013-03-20 16:02:00,34.0,34.0,29.81,ESE,113,9.0,17.0,99,0.01,,,0.03,,2013-03-20 22:02:00,
2013-03-20 16:12:00,34.0,34.0,29.81,ESE,113,9.0,17.0,99,0.01,,,0.03,,2013-03-20 22:12:00,
2013-03-20 16:22:00,35.0,35.0,29.81,SE,127,11.0,17.0,100,0.01,,,0.03,,2013-03-20 22:22:00,
2013-03-20 16:32:00,35.0,35.0,29.81,SSE,162,10.0,15.0,100,0.01,,,0.04,,2013-03-20 22:32:00,
2013-03-20 16:42:00,35.0,35.0,29.81,SSE,162,10.0,15.0,100,0.01,,,0.04,,2013-03-20 22:42:00,
2013-03-20 16:52:00,35.0,35.0,29.81,SE,145,8.0,12.0,100,0.03,,,0.06,,2013-03-20 22:52:00,
2013-03-20 17:01:00,35.0,35.0,29.81,SSE,154,7.0,12.0,100,0.03,,,0.06,,2013-03-20 23:01:00,
2013-03-20 17:12:00,35.0,35.0,29.81,SSE,154,7.0,12.0,100,0.03,,,0.06,,2013-03-20 23:12:00,
2013-03-20 17:22:00,37.0,37.0,29.80,ESE,120,12.0,19.0,100,0.03,,,0.06,,2013-03-20 23:22:00,
2013-03-20 17:31:00,37.0,37.0,29.79,SE,135,10.0,17.0,100,0.01,,,0.06,,2013-03-20 23:31:00,
2013-03-20 17:42:00,37.0,37.0,29.79,SE,135,10.0,17.0,100,0.01,,,0.06,,2013-03-20 23:42:00,
2013-03-20 17:52:00,37.0,37.0,29.78,SE,124,10.0,15.0,100,0.00,,,0.06,,2013-03-20 23:52:00,
2013-03-20 18:01:00,37.0,37.0,29.78,SE,131,11.0,18.0,100,0.00,,,0.06,,2013-03-21 00:01:00,
2013-03-20 18:11:00,37.0,37.0,29.78,SE,131,11.0,18.0,100,0.00,,,0.06,,2013-03-21 00:11:00,
2013-03-20 18:22:00,36.0,36.0,29.78,SE,144,11.0,18.0,100,0.00,,,0.06,,2013-03-21 00:22:00,
2013-03-20 18:32:00,36.0,36.0,29.77,ESE,121,11.0,18.0,100,0.00,,,0.06,,2013-03-21 00:32:00,
2013-03-20 18:41:00,36.0,36.0,29.77,ESE,121,11.0,18.0,100,0.00,,,0.06,,2013-03-21 00:41:00,
2013-03-20 18:52:00,36.0,36.0,29.77,SE,141,10.0,16.0,100,0.00,,,0.06,,2013-03-21 00:52:00,
2013-03-20 19:01:00,36.0,36.0,29.77,SE,144,8.0,12.0,100,0.01,,,0.07,,2013-03-21 01:01:00,
2013-03-20 19:11:00,36.0,36.0,29.77,SE,144,8.0,12.0,100,0.01,,,0.07,,2013-03-21 01:11:00,
2013-03-20 19:21:00,36.0,36.0,29.77,SE,146,6.0,15.0,100,0.02,,,0.08,,2013-03-21 01:21:00,
2013-03-20 19:32:00,36.0,36.0,29.76,ESE,112,5.0,8.0,100,0.03,,,0.09,,2013-03-21 01:32:00,
2013-03-20 19:42:00,36.0,36.0,29.76,ESE,112,5.0,8.0,100,0.03,,,0.09,,2013-03-21 01:42:00,
2013-03-20 19:52:00,36.0,36.0,29.76,ESE,112,5.0,8.0,100,0.03,,,0.09,,2013-03-21 01:52:00,
2013-03-20 20:01:00,36.0,36.0,29.76,ESE,112,5.0,8.0,100,0.03,,,0.09,,2013-03-21 02:01:00,